createdAt,value
2022-10-18T00:00:22.505Z,6.14
2022-10-18T00:02:49.801Z,6.09
2022-10-18T00:05:18.614Z,6.06
2022-10-18T00:07:45.856Z,6.03
2022-10-18T00:10:13.261Z,6.00
2022-10-18T00:12:40.464Z,5.96
2022-10-18T00:15:08.997Z,5.91
2022-10-18T00:17:36.630Z,5.83
2022-10-18T00:20:05.340Z,5.79
2022-10-18T00:22:34.249Z,5.76
2022-10-18T00:25:01.666Z,5.73
2022-10-18T00:27:29.746Z,5.70
2022-10-18T00:29:57.337Z,5.69
2022-10-18T00:32:25.017Z,5.70
2022-10-18T00:34:52.340Z,5.65
2022-10-18T00:37:19.551Z,5.65
2022-10-18T00:39:48.100Z,5.62
2022-10-18T00:42:17.216Z,5.58
2022-10-18T00:45:06.688Z,5.49
2022-10-18T00:47:35.889Z,5.46
2022-10-18T00:50:05.581Z,5.41
2022-10-18T00:52:37.135Z,5.37
2022-10-18T00:55:07.197Z,5.38
2022-10-18T00:57:34.965Z,5.36
2022-10-18T01:00:02.549Z,5.37
2022-10-18T01:02:30.146Z,5.35
2022-10-18T01:04:57.531Z,5.33
2022-10-18T01:07:36.008Z,5.32
2022-10-18T01:10:16.633Z,5.31
2022-10-18T01:12:51.607Z,5.29
2022-10-18T01:15:24.131Z,5.24
2022-10-18T01:17:59.826Z,5.18
2022-10-18T01:20:49.261Z,5.13
2022-10-18T01:23:22.853Z,5.09
2022-10-18T01:25:57.164Z,5.06
2022-10-18T01:28:45.515Z,5.02
2022-10-18T01:31:18.654Z,4.99
2022-10-18T01:33:51.142Z,4.99
2022-10-18T01:36:25.322Z,4.94
2022-10-18T01:38:55.407Z,4.90
2022-10-18T01:41:25.312Z,4.87
2022-10-18T01:43:57.611Z,4.84
2022-10-18T01:46:26.687Z,4.83
2022-10-18T01:48:55.503Z,4.84
2022-10-18T01:51:25.077Z,4.86
2022-10-18T01:53:52.434Z,4.86
2022-10-18T01:56:34.105Z,4.86
2022-10-18T01:59:22.666Z,4.82
2022-10-18T02:02:02.621Z,4.81
2022-10-18T02:04:39.766Z,4.81
2022-10-18T02:07:14.875Z,4.81
2022-10-18T02:09:50.621Z,4.76
2022-10-18T02:12:20.247Z,4.75
2022-10-18T02:14:49.685Z,4.73
2022-10-18T02:17:21.070Z,4.72
2022-10-18T02:19:52.949Z,4.72
2022-10-18T02:22:23.094Z,4.70
2022-10-18T02:24:54.901Z,4.68
2022-10-18T02:27:22.629Z,4.69
2022-10-18T02:29:50.081Z,4.66
2022-10-18T02:32:24.963Z,4.65
2022-10-18T02:34:59.282Z,4.64
2022-10-18T02:37:32.723Z,4.61
2022-10-18T02:40:00.101Z,4.58
2022-10-18T02:42:34.595Z,4.51
2022-10-18T02:45:02.091Z,4.50
2022-10-18T02:47:30.991Z,4.48
2022-10-18T02:49:58.429Z,4.46
2022-10-18T02:52:25.846Z,4.39
2022-10-18T02:54:53.013Z,4.35
2022-10-18T02:57:20.309Z,4.32
2022-10-18T02:59:47.465Z,4.30
2022-10-18T03:02:14.701Z,4.29
2022-10-18T03:04:43.330Z,4.25
2022-10-18T03:07:10.466Z,4.25
2022-10-18T03:09:37.670Z,4.20
2022-10-18T03:12:05.183Z,4.19
2022-10-18T03:14:32.635Z,4.19
2022-10-18T03:16:59.818Z,4.19
2022-10-18T03:19:26.945Z,4.20
2022-10-18T03:21:55.759Z,4.19
2022-10-18T03:24:23.305Z,4.19
2022-10-18T03:26:50.662Z,4.20
2022-10-18T03:29:17.798Z,4.19
2022-10-18T03:31:45.181Z,4.20
2022-10-18T03:34:12.446Z,4.16
2022-10-18T03:36:41.400Z,4.14
2022-10-18T03:39:11.539Z,4.08
2022-10-18T03:41:38.803Z,4.05
2022-10-18T03:44:05.947Z,4.05
2022-10-18T03:46:33.151Z,4.05
2022-10-18T03:49:00.429Z,4.01
2022-10-18T03:51:27.619Z,3.98
2022-10-18T03:53:54.947Z,3.99
2022-10-18T03:56:23.975Z,3.97
2022-10-18T03:58:51.308Z,3.96
2022-10-18T04:01:18.549Z,3.89
2022-10-18T04:03:45.946Z,3.88
2022-10-18T04:06:13.479Z,3.86
2022-10-18T04:08:41.187Z,3.82
2022-10-18T04:11:10.064Z,3.79
2022-10-18T04:13:38.849Z,3.74
2022-10-18T04:16:06.286Z,3.69
2022-10-18T04:18:33.517Z,3.68
2022-10-18T04:21:00.752Z,3.67
2022-10-18T04:23:28.171Z,3.68
2022-10-18T04:25:55.327Z,3.67
2022-10-18T04:28:25.636Z,3.67
2022-10-18T04:30:54.753Z,3.66
2022-10-18T04:33:22.016Z,3.63
2022-10-18T04:35:51.954Z,3.62
2022-10-18T04:38:19.348Z,3.61
2022-10-18T04:40:46.859Z,3.60
2022-10-18T04:43:14.459Z,3.63
2022-10-18T04:45:41.965Z,3.64
2022-10-18T04:48:10.830Z,3.65
2022-10-18T04:50:38.071Z,3.64
2022-10-18T04:53:15.090Z,3.64
2022-10-18T04:55:44.369Z,3.68
2022-10-18T04:58:12.034Z,3.77
2022-10-18T05:00:40.084Z,3.96
2022-10-18T05:03:08.083Z,4.36
2022-10-18T05:05:49.983Z,4.78
2022-10-18T05:08:24.160Z,5.13
2022-10-18T05:10:51.260Z,5.48
2022-10-18T05:13:18.515Z,5.88
2022-10-18T05:15:47.594Z,6.29
2022-10-18T05:18:14.881Z,6.67
2022-10-18T05:20:43.725Z,7.02
2022-10-18T05:23:11.005Z,7.34
2022-10-18T05:25:39.235Z,7.64
2022-10-18T05:28:15.714Z,7.92
2022-10-18T05:30:48.695Z,8.13
2022-10-18T05:33:15.880Z,8.36
2022-10-18T05:35:44.387Z,8.59
2022-10-18T05:38:11.850Z,8.81
2022-10-18T05:40:39.718Z,9.00
2022-10-18T05:43:07.022Z,9.26
2022-10-18T05:45:34.175Z,9.46
2022-10-18T05:48:01.583Z,9.65
2022-10-18T05:50:28.854Z,9.88
2022-10-18T05:53:06.892Z,10.01
2022-10-18T05:55:39.891Z,10.02
2022-10-18T05:58:07.335Z,10.00
2022-10-18T06:00:34.813Z,10.19
2022-10-18T06:03:02.255Z,10.48
2022-10-18T06:05:29.588Z,10.78
2022-10-18T06:07:58.233Z,10.96
2022-10-18T06:10:25.424Z,11.10
2022-10-18T06:12:52.965Z,11.31
2022-10-18T06:15:20.186Z,11.53
2022-10-18T06:17:47.483Z,11.76
2022-10-18T06:20:15.104Z,11.98
2022-10-18T06:22:42.574Z,12.12
2022-10-18T06:25:11.451Z,12.23
2022-10-18T06:27:38.784Z,12.48
2022-10-18T06:30:07.596Z,12.75
2022-10-18T06:32:34.836Z,12.92
2022-10-18T06:35:02.229Z,13.10
2022-10-18T06:37:31.044Z,13.35
2022-10-18T06:39:58.658Z,13.67
2022-10-18T06:42:27.262Z,13.99
2022-10-18T06:44:55.147Z,14.25
2022-10-18T06:47:22.556Z,14.44
2022-10-18T06:49:49.879Z,14.66
2022-10-18T06:52:17.633Z,14.83
2022-10-18T06:54:45.531Z,15.14
2022-10-18T06:57:12.794Z,15.47
2022-10-18T06:59:41.458Z,15.71
2022-10-18T07:02:09.779Z,15.91
2022-10-18T07:04:37.179Z,16.04
2022-10-18T07:07:04.466Z,16.25
2022-10-18T07:09:31.934Z,16.51
2022-10-18T07:11:59.355Z,16.65
2022-10-18T07:14:29.038Z,16.90
2022-10-18T07:17:00.550Z,17.15
2022-10-18T07:19:28.007Z,17.39
2022-10-18T07:21:55.359Z,17.55
2022-10-18T07:24:22.590Z,17.75
2022-10-18T07:26:49.898Z,17.91
2022-10-18T07:29:17.142Z,18.00
2022-10-18T07:31:44.674Z,18.20
2022-10-18T07:34:13.944Z,18.41
2022-10-18T07:36:41.844Z,18.67
2022-10-18T07:39:09.473Z,19.01
2022-10-18T07:41:37.196Z,19.32
2022-10-18T07:44:04.944Z,19.59
2022-10-18T07:46:32.656Z,19.82
2022-10-18T07:49:00.067Z,19.99
2022-10-18T07:51:31.019Z,20.17
2022-10-18T07:53:58.511Z,20.41
2022-10-18T07:56:25.720Z,20.66
2022-10-18T07:58:55.556Z,20.98
2022-10-18T08:01:24.388Z,21.25
2022-10-18T08:03:53.981Z,21.53
2022-10-18T08:06:22.793Z,21.78
2022-10-18T08:08:52.390Z,21.99
2022-10-18T08:11:21.910Z,22.08
2022-10-18T08:13:49.521Z,22.24
2022-10-18T08:16:19.082Z,22.45
2022-10-18T08:18:46.616Z,22.67
2022-10-18T08:21:15.931Z,22.80
2022-10-18T08:23:43.660Z,22.93
2022-10-18T08:26:14.922Z,22.96
2022-10-18T08:28:49.094Z,23.05
2022-10-18T08:31:26.363Z,23.13
2022-10-18T08:33:56.153Z,23.05
2022-10-18T08:36:23.606Z,23.31
2022-10-18T08:38:50.974Z,23.55
2022-10-18T08:41:32.854Z,23.76
2022-10-18T08:44:07.454Z,24.03
2022-10-18T08:46:36.142Z,24.19
2022-10-18T08:49:05.813Z,24.03
2022-10-18T08:51:39.993Z,23.75
2022-10-18T08:54:12.127Z,23.97
2022-10-18T08:56:43.183Z,24.30
2022-10-18T08:59:12.270Z,24.52
2022-10-18T09:04:30.870Z,24.62
2022-10-18T09:07:18.107Z,24.85
2022-10-18T09:09:50.892Z,25.00
2022-10-18T09:12:34.104Z,25.09
2022-10-18T09:15:13.477Z,24.96
2022-10-18T09:17:50.619Z,25.18
2022-10-18T09:20:23.989Z,25.09
2022-10-18T09:22:56.339Z,24.98
2022-10-18T09:25:26.192Z,25.23
2022-10-18T09:28:00.467Z,25.41
2022-10-18T09:30:39.769Z,25.49
2022-10-18T09:33:20.315Z,25.70
2022-10-18T09:35:52.666Z,25.86
2022-10-18T09:40:57.457Z,25.76
2022-10-18T09:43:37.445Z,25.61
2022-10-18T09:46:06.592Z,25.67
2022-10-18T09:48:38.395Z,25.76
2022-10-18T09:51:12.300Z,25.63
2022-10-18T09:53:45.094Z,25.69
2022-10-18T09:56:17.874Z,25.74
2022-10-18T09:58:48.827Z,25.55
2022-10-18T10:01:19.952Z,25.47
2022-10-18T10:03:47.717Z,25.29
2022-10-18T10:06:18.137Z,25.49
2022-10-18T10:08:54.049Z,25.77
2022-10-18T10:11:30.797Z,25.87
2022-10-18T10:14:09.039Z,25.89
2022-10-18T10:16:50.952Z,25.49
2022-10-18T10:19:20.901Z,25.44
2022-10-18T10:21:51.543Z,25.37
2022-10-18T10:24:25.097Z,25.36
2022-10-18T10:27:05.004Z,25.37
2022-10-18T10:32:17.229Z,25.42
2022-10-18T10:34:45.192Z,25.66
2022-10-18T10:37:25.203Z,25.83
2022-10-18T10:40:19.022Z,26.03
2022-10-18T10:43:13.200Z,26.22
2022-10-18T10:46:11.242Z,26.29
2022-10-18T10:48:48.889Z,25.92
2022-10-18T10:51:18.819Z,25.57
2022-10-18T10:53:57.857Z,25.11
2022-10-18T10:56:28.086Z,25.00
2022-10-18T10:58:58.594Z,25.13
2022-10-18T11:01:31.033Z,25.34
2022-10-18T11:04:01.401Z,25.58
2022-10-18T11:06:41.389Z,25.19
2022-10-18T11:09:31.483Z,24.96
2022-10-18T11:12:05.473Z,25.18
2022-10-18T11:14:39.226Z,25.16
2022-10-18T11:17:19.957Z,25.23
2022-10-18T11:20:10.468Z,25.41
2022-10-18T11:22:43.367Z,25.10
2022-10-18T11:25:15.383Z,24.94
2022-10-18T11:27:49.389Z,25.01
2022-10-18T11:30:32.880Z,25.22
2022-10-18T11:33:11.242Z,25.26
2022-10-18T11:35:46.086Z,25.07
2022-10-18T11:38:21.559Z,25.07
2022-10-18T11:41:05.363Z,25.06
2022-10-18T11:44:00.717Z,25.24
2022-10-18T11:46:45.544Z,25.38
2022-10-18T11:49:32.269Z,25.34
2022-10-18T11:52:09.049Z,25.27
2022-10-18T11:54:59.730Z,25.41
2022-10-18T11:57:40.963Z,25.31
2022-10-18T12:00:19.072Z,25.29
2022-10-18T12:03:04.307Z,25.29
2022-10-18T12:05:36.040Z,25.32
2022-10-18T12:08:07.685Z,25.39
2022-10-18T12:10:53.037Z,25.38
2022-10-18T12:13:29.552Z,24.81
2022-10-18T12:15:57.214Z,24.83
2022-10-18T12:18:26.502Z,24.82
2022-10-18T12:20:57.073Z,24.51
2022-10-18T12:23:36.682Z,24.15
2022-10-18T12:26:06.179Z,24.09
2022-10-18T12:28:43.073Z,24.12
2022-10-18T12:31:20.204Z,23.91
2022-10-18T12:33:52.703Z,23.75
2022-10-18T12:36:38.735Z,23.79
2022-10-18T12:39:11.555Z,23.77
2022-10-18T12:41:39.050Z,23.87
2022-10-18T12:44:08.141Z,23.88
2022-10-18T12:46:46.761Z,23.70
2022-10-18T12:49:17.272Z,23.75
2022-10-18T12:51:54.369Z,23.86
2022-10-18T12:54:26.767Z,23.91
2022-10-18T12:56:54.162Z,23.79
2022-10-18T12:59:51.214Z,23.67
2022-10-18T13:02:30.711Z,23.61
2022-10-18T13:05:00.533Z,23.64
2022-10-18T13:07:41.079Z,23.65
2022-10-18T13:10:41.380Z,23.65
2022-10-18T13:13:40.659Z,23.73
2022-10-18T13:16:26.898Z,23.84
2022-10-18T13:18:57.729Z,23.87
2022-10-18T13:21:39.921Z,23.58
2022-10-18T13:24:26.078Z,23.34
2022-10-18T13:27:34.559Z,23.27
2022-10-18T13:30:29.943Z,23.25
2022-10-18T13:33:05.187Z,23.23
2022-10-18T13:35:45.850Z,23.29
2022-10-18T13:38:32.658Z,23.16
2022-10-18T13:41:02.573Z,22.95
2022-10-18T13:44:19.201Z,22.88
2022-10-18T13:47:15.465Z,22.93
2022-10-18T13:50:03.540Z,22.94
2022-10-18T13:52:47.036Z,22.91
2022-10-18T13:55:33.789Z,22.76
2022-10-18T13:58:10.314Z,22.70
2022-10-18T14:00:54.791Z,22.57
2022-10-18T14:03:57.385Z,22.46
2022-10-18T14:06:28.617Z,22.33
2022-10-18T14:09:09.389Z,22.19
2022-10-18T14:11:50.793Z,21.99
2022-10-18T14:14:26.546Z,21.93
2022-10-18T14:17:00.975Z,22.03
2022-10-18T14:19:32.494Z,21.98
2022-10-18T14:22:18.110Z,21.82
2022-10-18T14:24:48.650Z,21.67
2022-10-18T14:27:21.157Z,21.59
2022-10-18T14:29:50.918Z,21.51
2022-10-18T14:32:27.927Z,21.46
2022-10-18T14:35:27.195Z,21.31
2022-10-18T14:37:47.841Z,21.21
2022-10-18T14:40:30.251Z,21.15
2022-10-18T14:43:01.245Z,21.11
2022-10-18T14:45:30.187Z,20.99
2022-10-18T14:48:13.245Z,20.86
2022-10-18T14:50:40.963Z,20.65
2022-10-18T14:53:13.669Z,20.45
2022-10-18T14:55:43.075Z,20.37
2022-10-18T14:58:15.170Z,20.30
2022-10-18T15:00:46.343Z,20.14
2022-10-18T15:03:18.090Z,20.05
2022-10-18T15:05:57.099Z,19.99
2022-10-18T15:08:26.622Z,19.87
2022-10-18T15:10:54.907Z,19.81
2022-10-18T15:13:23.255Z,19.71
2022-10-18T15:15:52.151Z,19.59
2022-10-18T15:18:22.197Z,19.50
2022-10-18T15:21:07.809Z,19.40
2022-10-18T15:23:34.958Z,19.38
2022-10-18T15:26:04.894Z,19.28
2022-10-18T15:28:36.166Z,19.20
2022-10-18T15:31:05.702Z,19.11
2022-10-18T15:33:36.534Z,19.01
2022-10-18T15:36:11.618Z,18.90
2022-10-18T15:38:39.129Z,18.81
2022-10-18T15:41:36.639Z,18.67
2022-10-18T15:44:11.638Z,18.56
2022-10-18T15:46:43.046Z,18.44
2022-10-18T15:49:48.671Z,18.31
2022-10-18T15:52:39.406Z,18.19
2022-10-18T15:55:48.024Z,18.06
2022-10-18T15:58:21.463Z,17.94
2022-10-18T16:00:50.369Z,17.81
2022-10-18T16:03:22.181Z,17.68
2022-10-18T16:05:50.835Z,17.57
2022-10-18T16:08:23.252Z,17.43
2022-10-18T16:10:50.881Z,17.26
2022-10-18T16:13:18.480Z,17.10
2022-10-18T16:15:46.082Z,16.97
2022-10-18T16:18:19.922Z,16.87
2022-10-18T16:20:47.959Z,16.80
2022-10-18T16:23:20.695Z,16.72
2022-10-18T16:25:48.593Z,16.63
2022-10-18T16:28:18.143Z,16.54
2022-10-18T16:30:51.310Z,16.43
2022-10-18T16:33:21.610Z,16.34
2022-10-18T16:35:49.302Z,16.26
2022-10-18T16:38:32.527Z,16.17
2022-10-18T16:41:02.573Z,16.07
2022-10-18T16:43:30.172Z,15.93
2022-10-18T16:45:57.574Z,15.80
2022-10-18T16:48:26.921Z,15.70
2022-10-18T16:50:56.070Z,15.59
2022-10-18T16:53:25.053Z,15.47
2022-10-18T16:55:55.234Z,15.39
2022-10-18T17:00:51.261Z,15.26
2022-10-18T17:03:18.781Z,15.21
2022-10-18T17:05:47.976Z,15.14
2022-10-18T17:08:19.496Z,15.08
2022-10-18T17:10:48.194Z,15.02
2022-10-18T17:13:15.967Z,14.95
2022-10-18T17:15:43.236Z,14.81
2022-10-18T17:18:12.010Z,14.70
2022-10-18T17:20:39.578Z,14.64
2022-10-18T17:23:09.275Z,14.59
2022-10-18T17:25:46.186Z,14.58
2022-10-18T17:28:24.994Z,14.55
2022-10-18T17:30:52.275Z,14.52
2022-10-18T17:33:19.526Z,14.45
2022-10-18T17:35:50.007Z,14.38
2022-10-18T17:38:18.638Z,14.31
2022-10-18T17:40:45.795Z,14.23
2022-10-18T17:43:13.992Z,14.16
2022-10-18T17:45:48.029Z,14.08
2022-10-18T17:48:17.489Z,14.02
2022-10-18T17:50:44.670Z,13.94
2022-10-18T17:53:15.112Z,13.85
2022-10-18T17:55:43.806Z,13.78
2022-10-18T17:58:11.037Z,13.69
2022-10-18T18:00:38.306Z,13.63
2022-10-18T18:03:05.631Z,13.52
2022-10-18T18:05:34.357Z,13.43
2022-10-18T18:08:04.185Z,13.31
2022-10-18T18:10:32.546Z,13.17
2022-10-18T18:13:02.910Z,13.09
2022-10-18T18:15:30.247Z,13.01
2022-10-18T18:17:58.210Z,12.95
2022-10-18T18:20:26.128Z,12.88
2022-10-18T18:22:55.037Z,12.80
2022-10-18T18:25:22.231Z,12.69
2022-10-18T18:27:49.582Z,12.55
2022-10-18T18:30:18.457Z,12.45
2022-10-18T18:32:45.666Z,12.38
2022-10-18T18:35:13.013Z,12.30
2022-10-18T18:37:40.274Z,12.22
2022-10-18T18:40:08.632Z,12.16
2022-10-18T18:42:36.256Z,12.12
2022-10-18T18:45:03.857Z,12.07
2022-10-18T18:47:35.466Z,12.02
2022-10-18T18:50:02.728Z,11.98
2022-10-18T18:52:30.235Z,11.96
2022-10-18T18:54:59.031Z,11.91
2022-10-18T18:57:26.458Z,11.86
2022-10-18T18:59:53.615Z,11.81
2022-10-18T19:02:20.845Z,11.77
2022-10-18T19:04:50.785Z,11.72
2022-10-18T19:07:18.378Z,11.68
2022-10-18T19:09:47.047Z,11.67
2022-10-18T19:12:16.463Z,11.67
2022-10-18T19:14:47.078Z,11.63
2022-10-18T19:17:14.330Z,11.60
2022-10-18T19:19:42.997Z,11.58
2022-10-18T19:22:11.701Z,11.56
2022-10-18T19:24:38.923Z,11.52
2022-10-18T19:27:12.452Z,11.48
2022-10-18T19:29:40.937Z,11.44
2022-10-18T19:32:12.223Z,11.42
2022-10-18T19:34:40.205Z,11.40
2022-10-18T19:37:09.489Z,11.35
2022-10-18T19:39:38.329Z,11.31
2022-10-18T19:42:08.861Z,11.26
2022-10-18T19:44:37.097Z,11.24
2022-10-18T19:47:05.152Z,11.18
2022-10-18T19:49:32.954Z,11.13
2022-10-18T19:52:00.200Z,11.08
2022-10-18T19:54:27.775Z,11.04
2022-10-18T19:56:56.417Z,10.97
2022-10-18T19:59:24.105Z,10.85
2022-10-18T20:01:51.365Z,10.79
2022-10-18T20:04:18.518Z,10.77
2022-10-18T20:06:45.977Z,10.72
2022-10-18T20:09:17.845Z,10.63
2022-10-18T20:11:50.620Z,10.57
2022-10-18T20:14:19.260Z,10.50
2022-10-18T20:16:46.885Z,10.46
2022-10-18T20:19:13.998Z,10.31
2022-10-18T20:21:41.271Z,10.20
2022-10-18T20:24:09.520Z,10.12
2022-10-18T20:26:37.138Z,10.10
2022-10-18T20:29:05.004Z,10.06
2022-10-18T20:31:38.223Z,9.97
2022-10-18T20:34:07.588Z,9.91
2022-10-18T20:36:35.363Z,9.87
2022-10-18T20:39:03.538Z,9.81
2022-10-18T20:41:32.749Z,9.76
2022-10-18T20:44:01.801Z,9.70
2022-10-18T20:46:30.841Z,9.69
2022-10-18T20:48:59.672Z,9.67
2022-10-18T20:51:27.113Z,9.61
2022-10-18T20:53:54.720Z,9.54
2022-10-18T20:56:23.523Z,9.49
2022-10-18T20:58:53.783Z,9.41
2022-10-18T21:01:22.657Z,9.35
2022-10-18T21:03:51.267Z,9.28
2022-10-18T21:06:21.373Z,9.23
2022-10-18T21:08:53.100Z,9.19
2022-10-18T21:11:20.363Z,9.17
2022-10-18T21:13:50.907Z,9.12
2022-10-18T21:16:18.510Z,9.09
2022-10-18T21:18:45.909Z,9.03
2022-10-18T21:21:16.007Z,8.97
2022-10-18T21:23:44.737Z,8.93
2022-10-18T21:26:15.207Z,8.91
2022-10-18T21:28:42.790Z,8.89
2022-10-18T21:31:12.808Z,8.84
2022-10-18T21:33:40.963Z,8.82
2022-10-18T21:36:08.765Z,8.79
2022-10-18T21:38:36.347Z,8.76
2022-10-18T21:41:08.930Z,8.76
2022-10-18T21:43:36.382Z,8.74
2022-10-18T21:46:03.663Z,8.70
2022-10-18T21:48:30.862Z,8.64
2022-10-18T21:51:02.958Z,8.59
2022-10-18T21:53:30.587Z,8.56
2022-10-18T21:56:04.638Z,8.48
2022-10-18T21:58:33.968Z,8.39
2022-10-18T22:01:01.332Z,8.35
2022-10-18T22:03:28.723Z,8.32
2022-10-18T22:06:01.767Z,8.32
2022-10-18T22:08:29.406Z,8.31
2022-10-18T22:10:57.897Z,8.30
2022-10-18T22:13:25.779Z,8.29
2022-10-18T22:15:54.915Z,8.27
2022-10-18T22:18:22.406Z,8.23
2022-10-18T22:20:56.747Z,8.20
2022-10-18T22:23:23.946Z,8.18
2022-10-18T22:25:51.250Z,8.16
2022-10-18T22:28:18.418Z,8.12
2022-10-18T22:30:45.817Z,8.09
2022-10-18T22:33:14.363Z,8.06
2022-10-18T22:35:41.825Z,7.99
2022-10-18T22:38:08.933Z,7.96
2022-10-18T22:40:36.209Z,7.89
2022-10-18T22:43:03.487Z,7.81
2022-10-18T22:45:30.652Z,7.76
2022-10-18T22:47:58.178Z,7.70
2022-10-18T22:50:26.745Z,7.68
2022-10-18T22:52:54.665Z,7.62
2022-10-18T22:55:22.041Z,7.58
2022-10-18T22:57:49.302Z,7.53
2022-10-18T23:00:16.697Z,7.49
2022-10-18T23:02:44.081Z,7.48
2022-10-18T23:05:11.383Z,7.47
2022-10-18T23:07:39.898Z,7.43
2022-10-18T23:10:07.525Z,7.45
2022-10-18T23:12:35.031Z,7.41
2022-10-18T23:15:02.471Z,7.37
2022-10-18T23:17:29.678Z,7.32
2022-10-18T23:19:57.186Z,7.29
2022-10-18T23:22:24.387Z,7.24
2022-10-18T23:24:52.995Z,7.21
2022-10-18T23:27:20.275Z,7.17
2022-10-18T23:29:47.433Z,7.13
2022-10-18T23:32:14.625Z,7.08
2022-10-18T23:34:41.949Z,7.04
2022-10-18T23:37:09.321Z,6.99
2022-10-18T23:39:36.443Z,6.94
2022-10-18T23:42:05.074Z,6.91
2022-10-18T23:44:32.210Z,6.89
2022-10-18T23:46:59.454Z,6.84
2022-10-18T23:49:26.703Z,6.78
2022-10-18T23:51:53.890Z,6.73
2022-10-18T23:54:21.221Z,6.69
2022-10-18T23:56:48.452Z,6.69
2022-10-18T23:59:17.040Z,6.67
